Time;durP1;ratioP1;P1;durP2;ratioP2;P2;SDS_P1;SDS_P2;PMS_P1;PMS_P2;Temp;Humidity;BMP_temperature;BMP_pressure;BME280_temperature;BME280_humidity;BME280_pressure;Samples;Min_cycle;Max_cycle;Signal;HPM_P1;HPM_P2
2023/02/11 00:00:03;;;;;;;59.07;42.97;;;3.20;99.90;;;;;;5014343;28;20404;-82
2023/02/11 00:02:31;;;;;;;62.20;42.50;;;3.30;99.90;;;;;;5015298;28;20383;-81
2023/02/11 00:04:57;;;;;;;56.33;42.55;;;3.30;99.90;;;;;;5016874;28;20434;-81
2023/02/11 00:07:22;;;;;;;63.00;42.92;;;3.40;99.90;;;;;;5017572;28;20390;-81
2023/02/11 00:09:50;;;;;;;59.65;43.28;;;3.40;99.90;;;;;;5011981;28;20363;-80
2023/02/11 00:12:18;;;;;;;58.90;42.80;;;3.50;99.90;;;;;;5010994;28;21065;-82
2023/02/11 00:14:44;;;;;;;60.67;43.10;;;3.60;99.90;;;;;;5008006;28;20407;-82
2023/02/11 00:17:09;;;;;;;58.70;43.43;;;3.60;99.90;;;;;;5005405;28;20449;-81
2023/02/11 00:19:35;;;;;;;59.10;42.50;;;3.50;99.90;;;;;;5009738;28;20521;-81
2023/02/11 00:22:01;;;;;;;61.45;44.60;;;3.60;99.90;;;;;;5004150;28;20406;-82
2023/02/11 00:24:28;;;;;;;58.38;43.35;;;3.60;99.90;;;;;;5014102;28;20486;-81
2023/02/11 00:26:54;;;;;;;59.30;42.97;;;3.60;99.90;;;;;;5005164;28;20387;-82
2023/02/11 00:29:20;;;;;;;58.83;43.95;;;3.50;99.90;;;;;;5011223;28;20375;-80
2023/02/11 00:31:46;;;;;;;60.13;42.42;;;3.40;99.90;;;;;;5011671;28;20395;-82
2023/02/11 00:34:13;;;;;;;58.95;43.15;;;3.50;99.90;;;;;;5012341;28;20446;-81
2023/02/11 00:36:39;;;;;;;57.08;42.65;;;3.50;99.90;;;;;;5014777;28;20715;-82
2023/02/11 00:39:06;;;;;;;63.00;44.10;;;3.40;99.90;;;;;;5009720;28;20448;-80
2023/02/11 00:41:33;;;;;;;57.93;42.13;;;3.50;99.90;;;;;;5011775;28;20448;-82
2023/02/11 00:44:00;;;;;;;59.80;42.83;;;3.50;99.90;;;;;;5012439;28;20718;-80
2023/02/11 00:46:25;;;;;;;59.67;43.70;;;3.50;99.90;;;;;;5006260;28;20405;-82
2023/02/11 00:48:53;;;;;;;59.03;44.67;;;3.60;99.90;;;;;;5012423;28;20430;-81
2023/02/11 00:51:20;;;;;;;59.22;43.45;;;3.50;99.90;;;;;;5006912;28;20399;-80
2023/02/11 00:53:46;;;;;;;60.00;43.85;;;3.50;99.90;;;;;;5011543;28;20431;-82
2023/02/11 00:56:12;;;;;;;57.03;42.78;;;3.60;99.90;;;;;;5009950;28;20442;-81
2023/02/11 00:58:37;;;;;;;60.55;44.20;;;3.50;99.90;;;;;;5008743;28;20425;-80
2023/02/11 01:01:03;;;;;;;59.83;44.13;;;3.50;99.90;;;;;;5005813;28;20407;-80
2023/02/11 01:03:29;;;;;;;60.50;44.30;;;3.50;99.90;;;;;;5010766;28;20391;-80
2023/02/11 01:05:55;;;;;;;62.17;44.08;;;3.50;99.90;;;;;;5011334;28;20485;-81
2023/02/11 01:08:21;;;;;;;60.85;42.72;;;3.60;99.90;;;;;;5010149;28;20371;-81
2023/02/11 01:11:01;;;;;;;57.30;42.55;;;3.60;99.90;;;;;;5012082;28;20376;-82
2023/02/11 01:13:27;;;;;;;61.22;43.92;;;3.50;99.90;;;;;;5010946;28;20379;-81
2023/02/11 01:15:54;;;;;;;59.88;43.45;;;3.50;99.90;;;;;;5012585;28;20433;-80
2023/02/11 01:18:19;;;;;;;60.47;43.60;;;3.50;99.90;;;;;;5012593;28;20375;-80
2023/02/11 01:20:45;;;;;;;56.40;42.17;;;3.60;99.90;;;;;;5012131;28;20371;-81
2023/02/11 01:23:11;;;;;;;58.33;43.38;;;3.60;99.90;;;;;;5012147;28;20383;-79
2023/02/11 01:25:36;;;;;;;58.53;42.47;;;3.60;99.90;;;;;;5012565;28;20395;-80
2023/02/11 01:28:02;;;;;;;58.67;42.47;;;3.60;99.90;;;;;;5011494;28;20378;-79
2023/02/11 01:30:28;;;;;;;56.53;41.67;;;3.60;99.90;;;;;;5012167;28;20367;-79
2023/02/11 01:32:53;;;;;;;57.90;41.53;;;3.60;99.90;;;;;;5011641;28;20717;-79
2023/02/11 01:35:19;;;;;;;57.70;42.20;;;3.70;99.90;;;;;;5011537;28;20889;-81
2023/02/11 01:37:45;;;;;;;56.25;41.28;;;3.70;99.90;;;;;;5012104;28;20385;-79
2023/02/11 01:40:16;;;;;;;57.63;42.00;;;3.60;99.90;;;;;;5012205;28;20415;-80
2023/02/11 01:42:42;;;;;;;56.17;43.13;;;3.70;99.90;;;;;;5011791;28;20374;-80
2023/02/11 01:45:45;;;;;;;56.45;41.83;;;3.70;99.90;;;;;;5011893;28;20888;-80
2023/02/11 01:48:19;;;;;;;59.38;42.55;;;3.70;99.90;;;;;;5011482;28;20425;-79
2023/02/11 01:50:46;;;;;;;56.45;41.58;;;3.70;99.90;;;;;;5012003;28;20374;-79
2023/02/11 01:58:45;;;;;;;58.10;42.05;;;3.80;99.90;;;;;;5010806;28;20445;-80
2023/02/11 02:01:16;;;;;;;60.20;43.58;;;3.70;99.90;;;;;;5008744;28;20774;-80
2023/02/11 02:03:45;;;;;;;54.33;41.77;;;3.80;99.90;;;;;;5011777;28;20375;-79
2023/02/11 02:06:36;;;;;;;57.67;41.92;;;3.80;99.90;;;;;;5011044;28;20882;-78
2023/02/11 02:09:10;;;;;;;56.50;42.65;;;3.90;99.90;;;;;;5268957;23;21053;-82
2023/02/11 02:11:36;;;;;;;58.53;42.87;;;4.00;99.90;;;;;;4999783;28;20450;-82
2023/02/11 02:14:02;;;;;;;57.92;42.70;;;3.90;99.90;;;;;;4996687;28;20391;-82
2023/02/11 02:16:34;;;;;;;58.88;43.47;;;3.90;99.90;;;;;;5006861;28;20428;-80
2023/02/11 02:19:50;;;;;;;61.13;43.80;;;3.90;99.90;;;;;;4990084;28;20390;-81
2023/02/11 02:22:34;;;;;;;58.70;42.90;;;3.90;99.90;;;;;;4946844;28;20410;-80
2023/02/11 02:25:02;;;;;;;57.67;43.33;;;4.00;99.90;;;;;;4980684;28;20414;-80
2023/02/11 02:27:50;;;;;;;64.25;44.55;;;3.90;99.90;;;;;;4991079;28;20365;-81
2023/02/11 02:30:57;;;;;;;55.33;43.33;;;4.00;99.90;;;;;;4987710;28;20405;-80
2023/02/11 02:33:34;;;;;;;58.95;43.55;;;4.00;99.90;;;;;;4988313;28;20412;-81
2023/02/11 02:36:25;;;;;;;62.45;45.05;;;4.00;99.90;;;;;;4988113;28;20480;-82
2023/02/11 02:38:59;;;;;;;59.75;44.60;;;4.00;99.90;;;;;;4989172;28;20423;-81
2023/02/11 02:41:31;;;;;;;58.50;43.85;;;4.00;99.90;;;;;;4989952;28;20465;-82
2023/02/11 02:43:57;;;;;;;57.73;43.73;;;3.90;99.90;;;;;;4990175;28;20476;-82
2023/02/11 02:46:25;;;;;;;61.47;44.10;;;4.00;99.90;;;;;;4998442;28;20421;-82
2023/02/11 02:48:53;;;;;;;62.10;44.55;;;3.90;99.90;;;;;;4989443;28;20393;-81
2023/02/11 02:51:36;;;;;;;58.95;45.33;;;4.00;99.90;;;;;;4998179;28;20387;-81
2023/02/11 02:54:02;;;;;;;62.67;45.50;;;3.90;99.90;;;;;;4989428;28;20866;-82
2023/02/11 02:56:44;;;;;;;60.00;45.17;;;3.90;99.90;;;;;;4989531;28;20404;-81
2023/02/11 02:59:18;;;;;;;61.20;45.13;;;4.00;99.90;;;;;;4993326;28;20462;-82
2023/02/11 03:01:52;;;;;;;65.82;46.25;;;4.00;99.90;;;;;;5010477;28;20870;-81
2023/02/11 03:04:47;;;;;;;59.75;45.33;;;3.90;99.90;;;;;;4972521;28;20381;-82
2023/02/11 03:07:15;;;;;;;66.07;45.65;;;4.00;99.90;;;;;;4990924;28;20722;-81
2023/02/11 03:09:55;;;;;;;59.58;44.53;;;3.90;99.90;;;;;;4990543;28;20448;-82
2023/02/11 03:12:22;;;;;;;61.50;44.88;;;3.90;99.90;;;;;;4991691;28;20377;-80
2023/02/11 03:14:51;;;;;;;62.45;45.88;;;4.00;99.90;;;;;;4996536;28;20390;-82
2023/02/11 03:17:18;;;;;;;58.05;45.17;;;4.00;99.90;;;;;;5010599;28;20434;-81
2023/02/11 03:19:47;;;;;;;62.13;45.53;;;4.00;99.90;;;;;;5010996;28;20387;-81
2023/02/11 03:22:26;;;;;;;59.78;46.08;;;4.00;99.90;;;;;;5010452;28;20498;-82
2023/02/11 03:24:53;;;;;;;61.50;47.17;;;4.00;99.90;;;;;;4960881;28;20488;-81
2023/02/11 03:27:55;;;;;;;62.10;45.90;;;3.90;99.90;;;;;;4962666;28;20819;-82
2023/02/11 03:30:34;;;;;;;61.05;45.92;;;3.90;99.90;;;;;;4961653;28;20521;-81
2023/02/11 03:33:09;;;;;;;63.85;46.40;;;3.80;99.90;;;;;;4961705;28;20822;-81
2023/02/11 03:35:42;;;;;;;62.60;47.00;;;3.90;99.90;;;;;;4962049;28;21219;-81
2023/02/11 03:38:21;;;;;;;63.30;47.33;;;3.80;99.90;;;;;;4962197;28;20400;-82
2023/02/11 03:40:47;;;;;;;64.72;47.72;;;3.80;99.90;;;;;;4967468;28;20492;-82
2023/02/11 03:43:40;;;;;;;66.20;49.37;;;3.90;99.90;;;;;;4988034;28;20407;-82
2023/02/11 03:46:07;;;;;;;64.53;48.47;;;3.90;99.90;;;;;;4989528;28;20463;-81
2023/02/11 03:48:37;;;;;;;66.90;49.05;;;3.90;99.90;;;;;;4987651;28;20399;-80
2023/02/11 03:51:06;;;;;;;65.93;48.92;;;3.90;99.90;;;;;;4980504;28;20781;-82
2023/02/11 03:53:32;;;;;;;67.72;50.58;;;4.00;99.90;;;;;;4971971;28;20449;-82
2023/02/11 03:56:03;;;;;;;66.03;49.28;;;4.00;99.90;;;;;;4991341;28;21032;-81
2023/02/11 03:58:29;;;;;;;66.28;49.20;;;4.00;99.90;;;;;;4990781;28;20416;-82
2023/02/11 04:00:56;;;;;;;66.20;48.78;;;4.10;99.90;;;;;;4991621;28;20747;-80
2023/02/11 04:03:22;;;;;;;68.28;50.25;;;4.10;99.90;;;;;;4993096;28;20409;-82
2023/02/11 04:05:47;;;;;;;65.63;49.60;;;4.20;99.90;;;;;;4991047;28;20416;-81
2023/02/11 04:08:13;;;;;;;68.97;50.90;;;4.20;99.90;;;;;;4988309;28;20425;-80
2023/02/11 04:10:39;;;;;;;66.88;50.75;;;4.30;99.90;;;;;;4989179;28;20477;-83
2023/02/11 04:13:05;;;;;;;70.13;50.47;;;4.20;99.90;;;;;;5011475;28;20390;-80
2023/02/11 04:15:30;;;;;;;72.13;50.60;;;4.30;99.90;;;;;;4992440;28;20464;-82
2023/02/11 04:17:56;;;;;;;69.82;51.83;;;4.30;99.90;;;;;;4992072;28;20922;-80
2023/02/11 04:20:22;;;;;;;74.40;53.30;;;4.30;99.90;;;;;;4991032;28;20906;-80
2023/02/11 04:22:48;;;;;;;71.18;51.97;;;4.30;99.90;;;;;;4992917;28;20460;-80
2023/02/11 04:25:13;;;;;;;77.07;54.33;;;4.30;99.90;;;;;;4992001;28;20504;-82
2023/02/11 04:27:39;;;;;;;73.03;53.37;;;4.30;99.90;;;;;;4993212;28;20886;-81
2023/02/11 04:30:06;;;;;;;72.47;55.13;;;4.30;99.90;;;;;;4990997;28;20408;-80
2023/02/11 04:32:34;;;;;;;77.60;55.83;;;4.30;99.90;;;;;;4991517;28;20407;-81
2023/02/11 04:35:00;;;;;;;77.95;56.63;;;4.20;99.90;;;;;;4990105;28;20514;-81
2023/02/11 04:37:25;;;;;;;78.70;56.20;;;4.30;99.90;;;;;;5006042;28;20483;-81
2023/02/11 04:39:51;;;;;;;74.15;54.97;;;4.20;99.90;;;;;;4997442;28;20856;-82
2023/02/11 04:42:16;;;;;;;78.78;56.03;;;4.30;99.90;;;;;;4984956;28;20366;-81
2023/02/11 04:44:42;;;;;;;75.53;55.83;;;4.30;99.90;;;;;;4992216;28;20500;-81
2023/02/11 04:47:08;;;;;;;77.90;56.10;;;4.30;99.90;;;;;;4991685;28;20392;-81
2023/02/11 04:49:33;;;;;;;75.72;56.28;;;4.40;99.90;;;;;;4992157;28;20388;-81
2023/02/11 04:52:02;;;;;;;80.78;58.20;;;4.40;99.90;;;;;;4990484;28;20396;-82
2023/02/11 04:54:27;;;;;;;87.97;59.45;;;4.40;99.90;;;;;;4990927;28;20480;-81
2023/02/11 04:56:53;;;;;;;85.00;60.67;;;4.40;99.90;;;;;;4991462;28;20942;-82
2023/02/11 04:59:19;;;;;;;88.00;61.05;;;4.30;99.90;;;;;;4990967;28;20385;-81
2023/02/11 05:01:44;;;;;;;90.82;65.60;;;4.40;99.90;;;;;;4991926;28;20465;-81
2023/02/11 05:04:10;;;;;;;90.97;64.25;;;4.30;99.90;;;;;;4992470;28;20568;-82
2023/02/11 05:06:38;;;;;;;88.13;64.10;;;4.40;99.90;;;;;;4990124;28;20420;-81
2023/02/11 05:09:04;;;;;;;92.72;64.45;;;4.40;99.90;;;;;;4991106;28;20428;-81
2023/02/11 05:11:30;;;;;;;90.67;63.80;;;4.40;99.90;;;;;;4992201;28;20416;-81
2023/02/11 05:13:56;;;;;;;95.07;64.17;;;4.40;99.90;;;;;;4991927;28;20389;-82
2023/02/11 05:16:22;;;;;;;90.35;64.55;;;4.50;99.90;;;;;;4991693;28;20455;-81
2023/02/11 05:18:48;;;;;;;91.65;64.00;;;4.50;99.90;;;;;;4991507;28;20557;-82
2023/02/11 05:21:16;;;;;;;90.77;63.80;;;4.50;99.90;;;;;;4992590;28;20488;-81
2023/02/11 05:23:43;;;;;;;94.33;65.73;;;4.60;99.90;;;;;;4992637;28;20384;-81
2023/02/11 05:26:09;;;;;;;92.88;64.53;;;4.60;99.90;;;;;;4991760;28;20417;-81
2023/02/11 05:28:35;;;;;;;93.18;66.57;;;4.70;99.90;;;;;;4996488;28;20376;-82
2023/02/11 05:31:01;;;;;;;96.53;66.03;;;4.60;99.90;;;;;;5010142;28;20391;-81
2023/02/11 05:33:27;;;;;;;96.47;64.90;;;4.60;99.90;;;;;;5009629;28;20422;-82
2023/02/11 05:36:01;;;;;;;95.30;65.53;;;4.70;99.90;;;;;;4989771;28;20896;-82
2023/02/11 05:38:26;;;;;;;94.47;65.68;;;4.60;99.90;;;;;;4989283;28;20412;-82
2023/02/11 05:40:53;;;;;;;95.53;65.73;;;4.60;99.90;;;;;;4987617;28;20404;-82
2023/02/11 05:43:19;;;;;;;91.53;63.80;;;4.70;99.90;;;;;;4988748;28;20533;-81
2023/02/11 05:45:44;;;;;;;91.78;64.45;;;4.70;99.90;;;;;;4987466;28;20432;-81
2023/02/11 05:48:10;;;;;;;90.43;62.53;;;4.70;99.90;;;;;;5004351;28;20738;-81
2023/02/11 05:50:37;;;;;;;95.40;64.93;;;4.70;99.90;;;;;;5007885;28;20450;-81
2023/02/11 05:53:03;;;;;;;91.82;64.55;;;4.80;99.90;;;;;;4991006;28;20380;-79
2023/02/11 05:55:28;;;;;;;95.97;66.23;;;4.80;99.90;;;;;;4990907;28;20381;-79
2023/02/11 05:57:54;;;;;;;93.27;63.80;;;4.70;99.90;;;;;;4991467;28;20771;-81
2023/02/11 06:00:20;;;;;;;90.15;62.92;;;4.80;99.90;;;;;;4991766;28;20377;-82
2023/02/11 06:02:45;;;;;;;93.45;64.43;;;4.90;99.90;;;;;;4991411;28;20760;-81
2023/02/11 06:05:11;;;;;;;90.63;63.73;;;4.80;99.90;;;;;;5011233;28;20510;-81
2023/02/11 06:07:37;;;;;;;94.40;64.23;;;4.90;99.90;;;;;;5010550;28;20375;-81
2023/02/11 06:10:02;;;;;;;91.67;64.10;;;4.80;99.90;;;;;;5010415;28;20403;-80
2023/02/11 06:12:28;;;;;;;95.60;65.68;;;4.90;99.90;;;;;;5009842;28;20723;-81
2023/02/11 06:14:54;;;;;;;93.32;65.72;;;4.90;99.90;;;;;;5009750;28;20499;-81
2023/02/11 06:17:19;;;;;;;96.27;65.63;;;5.00;99.90;;;;;;4994350;28;20377;-81
2023/02/11 06:19:45;;;;;;;94.27;66.77;;;5.00;99.90;;;;;;4988232;28;20495;-82
2023/02/11 06:22:11;;;;;;;99.53;67.87;;;4.90;99.90;;;;;;4990491;28;20376;-82
2023/02/11 06:24:36;;;;;;;102.78;70.95;;;4.90;99.90;;;;;;4990267;28;20379;-82
2023/02/11 06:27:03;;;;;;;106.15;70.45;;;4.90;99.90;;;;;;4989414;28;20391;-82
2023/02/11 06:29:29;;;;;;;105.97;72.10;;;4.80;99.90;;;;;;4990756;28;20432;-81
2023/02/11 06:31:55;;;;;;;110.13;73.32;;;4.80;99.90;;;;;;4990435;28;20388;-81
2023/02/11 06:34:23;;;;;;;115.20;74.75;;;4.90;99.90;;;;;;4990438;28;20385;-82
2023/02/11 06:36:48;;;;;;;111.72;74.60;;;4.90;99.90;;;;;;4989614;28;20443;-82
2023/02/11 06:39:14;;;;;;;116.40;76.40;;;4.90;99.90;;;;;;4990670;28;20385;-82
2023/02/11 06:41:40;;;;;;;112.90;74.87;;;5.00;99.90;;;;;;5008376;28;20383;-82
2023/02/11 06:44:06;;;;;;;109.00;73.95;;;5.00;99.90;;;;;;5010321;28;20434;-81
2023/02/11 06:46:31;;;;;;;113.40;75.28;;;5.10;99.90;;;;;;5008589;28;20465;-82
2023/02/11 06:48:57;;;;;;;107.00;72.45;;;5.10;99.90;;;;;;4987640;28;20397;-82
2023/02/11 06:51:23;;;;;;;111.38;75.03;;;5.20;99.90;;;;;;4989292;28;20885;-82
2023/02/11 06:53:48;;;;;;;111.87;74.00;;;5.20;99.90;;;;;;4986971;28;20423;-82
2023/02/11 06:56:20;;;;;;;108.67;73.80;;;5.20;99.90;;;;;;4990317;28;20389;-82
2023/02/11 06:58:46;;;;;;;107.87;70.67;;;5.30;99.90;;;;;;4987839;28;20416;-81
2023/02/11 07:01:15;;;;;;;108.50;71.88;;;5.30;99.90;;;;;;5000141;28;20478;-82
2023/02/11 07:03:43;;;;;;;110.57;72.30;;;5.30;99.90;;;;;;5009625;28;20383;-80
2023/02/11 07:06:13;;;;;;;108.13;72.22;;;5.30;99.90;;;;;;4990043;28;20416;-81
2023/02/11 07:08:41;;;;;;;101.18;68.63;;;5.30;99.90;;;;;;4989861;28;20887;-80
2023/02/11 07:11:13;;;;;;;107.88;72.07;;;5.40;99.90;;;;;;4990578;28;20392;-81
2023/02/11 07:13:38;;;;;;;107.68;70.93;;;5.30;99.90;;;;;;4990098;28;20382;-81
2023/02/11 07:16:11;;;;;;;99.57;66.90;;;5.40;99.90;;;;;;4990285;28;20469;-81
2023/02/11 07:18:36;;;;;;;101.18;68.65;;;5.50;99.90;;;;;;5007603;28;20390;-80
2023/02/11 07:21:07;;;;;;;103.05;68.45;;;5.40;99.90;;;;;;5009229;28;20384;-82
2023/02/11 07:23:33;;;;;;;101.25;70.18;;;5.50;99.90;;;;;;5008923;28;20557;-82
2023/02/11 07:26:08;;;;;;;103.22;69.15;;;5.60;99.90;;;;;;4989940;28;20428;-81
2023/02/11 07:28:35;;;;;;;103.60;68.47;;;5.50;99.90;;;;;;4971539;28;20954;-81
2023/02/11 07:31:09;;;;;;;99.75;65.90;;;5.60;99.90;;;;;;4993117;28;20393;-82
2023/02/11 07:33:36;;;;;;;96.38;66.15;;;5.60;99.90;;;;;;4994269;28;20393;-80
2023/02/11 07:36:04;;;;;;;93.70;65.93;;;5.70;99.90;;;;;;4994062;28;20476;-80
2023/02/11 07:38:32;;;;;;;97.95;65.43;;;5.70;99.90;;;;;;4993333;28;20388;-80
2023/02/11 07:41:01;;;;;;;99.00;65.28;;;5.80;99.90;;;;;;4992756;28;20392;-81
2023/02/11 07:43:27;;;;;;;95.30;64.37;;;5.80;99.90;;;;;;4991855;28;21111;-81
2023/02/11 07:45:53;;;;;;;94.97;64.50;;;5.80;99.90;;;;;;4993380;28;20439;-81
2023/02/11 07:48:19;;;;;;;96.82;64.38;;;5.80;99.90;;;;;;4992914;28;20905;-80
2023/02/11 07:50:46;;;;;;;96.37;64.17;;;5.90;99.90;;;;;;5008687;28;20781;-80
2023/02/11 07:53:12;;;;;;;99.93;65.63;;;5.90;99.90;;;;;;5012978;28;20394;-81
2023/02/11 07:55:47;;;;;;;93.03;62.42;;;6.00;99.90;;;;;;5012851;28;20371;-81
2023/02/11 07:58:13;;;;;;;100.63;65.78;;;5.90;99.90;;;;;;5007255;28;20433;-81
2023/02/11 08:00:40;;;;;;;101.97;66.20;;;5.90;99.90;;;;;;4992593;28;20808;-81
2023/02/11 08:03:07;;;;;;;94.30;64.30;;;5.80;99.90;;;;;;4992576;28;20389;-81
2023/02/11 08:05:36;;;;;;;97.60;65.40;;;5.80;99.90;;;;;;4992323;28;20416;-80
2023/02/11 08:08:02;;;;;;;99.27;65.10;;;5.90;99.90;;;;;;4992826;28;20444;-82
2023/02/11 08:10:28;;;;;;;102.03;67.73;;;5.80;99.90;;;;;;4991429;28;20921;-81
2023/02/11 08:12:54;;;;;;;97.70;65.13;;;5.90;99.90;;;;;;4992883;28;20456;-81
2023/02/11 08:15:19;;;;;;;102.10;67.53;;;5.90;99.90;;;;;;4991222;28;20392;-82
2023/02/11 08:17:45;;;;;;;105.03;68.63;;;5.90;99.90;;;;;;4992220;28;20426;-82
2023/02/11 08:20:11;;;;;;;102.50;67.83;;;5.90;99.90;;;;;;4991503;28;20804;-81
2023/02/11 08:22:37;;;;;;;103.45;68.47;;;5.90;99.90;;;;;;4991727;28;20863;-81
2023/02/11 08:25:03;;;;;;;102.88;67.47;;;5.90;99.90;;;;;;4992720;28;20415;-80
2023/02/11 08:27:30;;;;;;;104.25;66.75;;;6.00;99.90;;;;;;4992416;28;20412;-80
2023/02/11 08:29:56;;;;;;;102.60;66.00;;;5.90;99.90;;;;;;4993335;28;20445;-81
2023/02/11 08:32:24;;;;;;;100.37;67.07;;;5.90;99.90;;;;;;4993124;28;20787;-81
2023/02/11 08:34:51;;;;;;;98.47;65.00;;;5.90;99.90;;;;;;4992953;28;20472;-82
2023/02/11 08:37:18;;;;;;;102.15;65.43;;;6.00;99.90;;;;;;4992713;28;20408;-81
2023/02/11 08:39:46;;;;;;;100.60;64.40;;;6.00;99.90;;;;;;4992215;28;20389;-82
2023/02/11 08:42:12;;;;;;;101.28;65.03;;;6.10;99.90;;;;;;4989800;28;20475;-82
2023/02/11 08:44:38;;;;;;;96.38;64.28;;;6.00;99.90;;;;;;4991107;28;20455;-80
2023/02/11 08:47:04;;;;;;;98.57;64.47;;;6.00;99.90;;;;;;4992644;28;20928;-81
2023/02/11 08:49:31;;;;;;;99.72;65.72;;;6.00;99.90;;;;;;5002858;28;20468;-81
2023/02/11 08:52:01;;;;;;;97.13;65.00;;;5.90;99.90;;;;;;4983878;28;20387;-81
2023/02/11 08:54:26;;;;;;;100.70;63.53;;;6.00;99.90;;;;;;5011214;28;20387;-82
2023/02/11 08:56:52;;;;;;;97.82;63.78;;;6.00;99.90;;;;;;5010443;28;20801;-80
2023/02/11 08:59:18;;;;;;;99.05;64.93;;;6.00;99.90;;;;;;5010512;28;20403;-81
2023/02/11 09:01:46;;;;;;;100.40;64.97;;;5.90;99.90;;;;;;5011035;28;20390;-81
2023/02/11 09:04:13;;;;;;;91.75;60.30;;;6.00;99.90;;;;;;5000032;28;20480;-81
2023/02/11 09:06:38;;;;;;;92.00;60.60;;;6.10;99.90;;;;;;4991267;28;20401;-81
2023/02/11 09:09:05;;;;;;;94.97;61.97;;;6.10;99.90;;;;;;4973474;28;20400;-80
2023/02/11 09:11:34;;;;;;;88.38;58.75;;;6.30;99.90;;;;;;4991883;28;20373;-80
2023/02/11 09:14:00;;;;;;;89.40;60.20;;;6.20;99.90;;;;;;4992588;28;20377;-80
2023/02/11 09:16:29;;;;;;;90.85;59.35;;;6.20;99.90;;;;;;4991448;28;20407;-80
2023/02/11 09:18:59;;;;;;;85.73;58.43;;;6.30;99.90;;;;;;4972642;28;20407;-80
2023/02/11 09:21:26;;;;;;;88.88;57.42;;;6.30;99.90;;;;;;4989328;28;20385;-82
2023/02/11 09:23:52;;;;;;;80.25;54.10;;;6.40;99.90;;;;;;4990803;28;20463;-81
2023/02/11 09:26:26;;;;;;;78.75;53.55;;;6.50;99.90;;;;;;4991141;28;20420;-79
2023/02/11 09:28:52;;;;;;;80.63;53.60;;;6.50;99.90;;;;;;4995292;28;20381;-77
2023/02/11 09:31:20;;;;;;;74.43;52.30;;;6.60;99.90;;;;;;4998367;28;20393;-76
2023/02/11 09:33:48;;;;;;;77.57;52.00;;;6.60;99.90;;;;;;4998920;28;20408;-76
2023/02/11 09:36:17;;;;;;;75.78;50.85;;;6.70;99.90;;;;;;4996123;28;20436;-76
2023/02/11 09:38:44;;;;;;;73.22;49.83;;;6.60;99.90;;;;;;4997368;28;20420;-76
2023/02/11 09:41:34;;;;;;;70.63;48.38;;;6.70;99.90;;;;;;4990637;28;20848;-81
2023/02/11 09:44:05;;;;;;;72.28;49.90;;;6.70;99.90;;;;;;4990343;28;20887;-82
2023/02/11 09:46:38;;;;;;;65.30;48.33;;;6.80;99.90;;;;;;4985608;28;20411;-80
2023/02/11 09:49:05;;;;;;;72.22;48.40;;;6.80;99.90;;;;;;4986366;28;20407;-82
2023/02/11 09:51:30;;;;;;;72.18;49.00;;;6.90;99.90;;;;;;4989173;28;20552;-81
2023/02/11 09:54:06;;;;;;;69.95;48.03;;;6.90;99.90;;;;;;4989541;28;20962;-80
2023/02/11 09:56:32;;;;;;;69.20;48.47;;;7.00;99.90;;;;;;4988196;28;20401;-81
2023/02/11 09:58:58;;;;;;;68.63;48.13;;;7.00;99.90;;;;;;4986605;28;20917;-81
2023/02/11 10:01:41;;;;;;;71.13;49.25;;;6.90;99.90;;;;;;4988298;28;20401;-81
2023/02/11 10:04:31;;;;;;;71.70;49.30;;;6.90;99.90;;;;;;4988862;28;20405;-82
2023/02/11 10:07:14;;;;;;;72.90;50.63;;;6.80;99.90;;;;;;4971348;28;20559;-82
2023/02/11 10:09:58;;;;;;;71.10;50.00;;;6.80;99.90;;;;;;4995381;28;20508;-82
2023/02/11 10:12:24;;;;;;;75.47;51.53;;;6.80;99.90;;;;;;5010964;28;20885;-82
2023/02/11 10:14:52;;;;;;;70.70;48.65;;;6.80;99.90;;;;;;5000407;28;20384;-82
2023/02/11 10:17:24;;;;;;;76.57;49.38;;;6.80;99.90;;;;;;4988766;28;22272;-81
2023/02/11 10:20:03;;;;;;;77.70;52.33;;;6.70;99.90;;;;;;4986306;28;20491;-82
2023/02/11 10:22:40;;;;;;;73.15;49.97;;;6.80;99.90;;;;;;4989978;28;20399;-82
2023/02/11 10:25:34;;;;;;;76.30;50.97;;;6.80;99.90;;;;;;4989899;28;20405;-81
2023/02/11 10:28:10;;;;;;;71.18;50.38;;;6.80;99.90;;;;;;4985227;28;20416;-82
2023/02/11 10:30:58;;;;;;;72.63;48.97;;;6.80;99.90;;;;;;4988961;28;20464;-82
2023/02/11 10:33:28;;;;;;;77.03;49.03;;;6.90;99.90;;;;;;4994802;28;20378;-80
2023/02/11 10:35:53;;;;;;;69.73;48.77;;;6.80;99.90;;;;;;5005145;28;20473;-82
2023/02/11 10:38:19;;;;;;;72.43;47.73;;;6.90;99.90;;;;;;4989476;28;20424;-82
2023/02/11 10:40:45;;;;;;;67.00;46.58;;;6.90;99.90;;;;;;4989766;28;20381;-81
2023/02/11 10:43:15;;;;;;;68.75;45.60;;;7.00;99.90;;;;;;4988171;28;20479;-81
2023/02/11 10:45:48;;;;;;;66.47;44.95;;;7.00;99.90;;;;;;5001976;28;20479;-82
2023/02/11 10:48:39;;;;;;;69.75;46.35;;;6.90;99.90;;;;;;4988408;28;20381;-81
2023/02/11 10:51:32;;;;;;;68.57;46.65;;;6.90;99.90;;;;;;4970918;28;20385;-81
2023/02/11 10:54:05;;;;;;;62.22;44.83;;;6.90;99.90;;;;;;4970690;28;20786;-81
2023/02/11 10:56:35;;;;;;;61.72;45.33;;;7.00;99.90;;;;;;4970894;28;20390;-82
2023/02/11 10:59:32;;;;;;;63.05;44.20;;;6.90;99.90;;;;;;4984430;28;20411;-81
2023/02/11 11:02:19;;;;;;;65.72;45.35;;;6.90;99.90;;;;;;4999757;28;20379;-82
2023/02/11 11:04:47;;;;;;;62.72;43.78;;;7.00;99.90;;;;;;5010998;28;20387;-81
2023/02/11 11:07:18;;;;;;;64.83;44.53;;;6.90;99.90;;;;;;4994433;28;20858;-81
2023/02/11 11:09:53;;;;;;;63.95;43.65;;;6.90;99.90;;;;;;5012706;28;20410;-81
2023/02/11 11:12:27;;;;;;;66.18;43.70;;;6.90;99.90;;;;;;5004947;28;20894;-81
2023/02/11 11:14:57;;;;;;;61.63;43.08;;;7.00;99.90;;;;;;4990690;28;20404;-82
2023/02/11 11:17:22;;;;;;;67.37;44.03;;;7.00;99.90;;;;;;4991629;28;20372;-82
2023/02/11 11:19:48;;;;;;;64.97;41.43;;;6.90;99.90;;;;;;4991831;28;21253;-83
2023/02/11 11:22:23;;;;;;;60.55;40.30;;;7.00;99.90;;;;;;4989062;28;21107;-82
2023/02/11 11:24:54;;;;;;;58.63;41.58;;;7.00;99.90;;;;;;4991943;28;20427;-82
2023/02/11 11:27:22;;;;;;;58.53;40.92;;;7.00;99.90;;;;;;4990949;28;20438;-82
2023/02/11 11:29:54;;;;;;;59.58;40.50;;;7.00;99.90;;;;;;4972403;28;20943;-81
2023/02/11 11:32:24;;;;;;;51.93;37.40;;;7.00;99.90;;;;;;4968351;28;20417;-81
2023/02/11 11:34:54;;;;;;;50.65;36.67;;;7.10;99.90;;;;;;4989568;28;20435;-82
2023/02/11 11:37:24;;;;;;;51.97;35.90;;;7.20;99.90;;;;;;5004243;28;20479;-82
2023/02/11 11:40:08;;;;;;;46.75;34.60;;;7.10;99.90;;;;;;5007175;28;20410;-82
2023/02/11 11:42:36;;;;;;;51.50;35.67;;;7.20;99.90;;;;;;5012760;28;20382;-82
2023/02/11 11:45:07;;;;;;;49.67;34.00;;;7.20;99.90;;;;;;4994459;28;20440;-83
2023/02/11 11:47:42;;;;;;;44.33;32.97;;;7.20;99.90;;;;;;4992381;28;20534;-83
2023/02/11 11:50:34;;;;;;;41.83;31.02;;;7.20;99.90;;;;;;4991744;28;20460;-82
2023/02/11 11:53:11;;;;;;;40.15;30.67;;;7.20;99.90;;;;;;4992853;28;20764;-82
2023/02/11 11:56:01;;;;;;;43.03;29.92;;;7.30;99.90;;;;;;4990527;28;20447;-83
2023/02/11 11:58:29;;;;;;;42.63;29.70;;;7.30;99.90;;;;;;4990256;28;21283;-82
2023/02/11 12:01:31;;;;;;;38.92;29.75;;;7.30;99.90;;;;;;4991920;28;20425;-83
2023/02/11 12:04:02;;;;;;;41.45;28.85;;;7.40;99.90;;;;;;4989390;28;20384;-83
2023/02/11 12:06:57;;;;;;;42.08;28.08;;;7.40;99.90;;;;;;4990624;28;20452;-83
2023/02/11 12:09:26;;;;;;;40.65;29.70;;;7.40;99.90;;;;;;4986702;28;20409;-81
2023/02/11 12:11:52;;;;;;;36.73;28.67;;;7.60;99.90;;;;;;4989679;28;20385;-82
2023/02/11 12:14:33;;;;;;;38.30;28.20;;;7.50;99.90;;;;;;4989125;28;20381;-81
2023/02/11 12:17:08;;;;;;;37.65;28.60;;;7.50;99.90;;;;;;4986442;28;20392;-81
2023/02/11 12:19:49;;;;;;;38.25;28.17;;;7.60;99.90;;;;;;4986713;28;20405;-81
2023/02/11 12:22:17;;;;;;;38.80;28.30;;;7.50;99.90;;;;;;4985059;28;20393;-81
2023/02/11 12:25:17;;;;;;;40.35;29.63;;;7.60;99.90;;;;;;4990797;28;20400;-80
2023/02/11 12:27:56;;;;;;;37.20;29.17;;;7.60;99.90;;;;;;4990407;28;20768;-81
2023/02/11 12:30:33;;;;;;;39.42;28.73;;;7.40;99.90;;;;;;4991400;28;20464;-81
2023/02/11 12:33:19;;;;;;;37.90;28.00;;;7.50;99.90;;;;;;4990743;28;20906;-81
2023/02/11 12:36:12;;;;;;;35.22;27.15;;;7.60;99.90;;;;;;4991932;28;20381;-82
2023/02/11 12:38:55;;;;;;;35.53;25.93;;;7.60;99.90;;;;;;4990156;28;20459;-82
2023/02/11 12:44:36;;;;;;;34.30;26.50;;;7.70;99.90;;;;;;4988642;28;20540;-82
2023/02/11 12:47:33;;;;;;;35.30;26.30;;;7.60;99.90;;;;;;4989122;28;20791;-82
2023/02/11 12:50:05;;;;;;;30.88;25.52;;;7.70;99.90;;;;;;4994313;28;20430;-82
2023/02/11 12:53:06;;;;;;;34.50;27.15;;;7.80;99.90;;;;;;5012713;28;20446;-82
2023/02/11 12:55:41;;;;;;;34.97;26.40;;;7.70;99.90;;;;;;5007929;28;20475;-82
2023/02/11 12:58:15;;;;;;;33.30;25.48;;;7.60;99.90;;;;;;4992139;28;20424;-82
2023/02/11 13:03:47;;;;;;;33.28;25.65;;;7.60;99.90;;;;;;5042951;22;20492;-82